sensor_id;sensor_type;location;lat;lon;timestamp;pressure;altitude;pressure_sealevel;temperature;humidity
27805;BME280;15183;51.350;11.102;2023-05-14T00:00:59;100396.81;;;17.14;51.95
27805;BME280;15183;51.350;11.102;2023-05-14T00:03:26;100393.38;;;17.18;51.77
27805;BME280;15183;51.350;11.102;2023-05-14T00:05:52;100392.00;;;17.16;51.63
27805;BME280;15183;51.350;11.102;2023-05-14T00:08:18;100390.13;;;17.11;51.86
27805;BME280;15183;51.350;11.102;2023-05-14T00:10:45;100385.81;;;17.10;51.60
27805;BME280;15183;51.350;11.102;2023-05-14T00:13:11;100385.72;;;17.00;51.49
27805;BME280;15183;51.350;11.102;2023-05-14T00:15:38;100390.28;;;16.99;52.03
27805;BME280;15183;51.350;11.102;2023-05-14T00:18:14;100382.13;;;16.89;52.33
27805;BME280;15183;51.350;11.102;2023-05-14T00:20:40;100374.78;;;16.74;52.03
27805;BME280;15183;51.350;11.102;2023-05-14T00:23:07;100376.38;;;16.75;52.12
27805;BME280;15183;51.350;11.102;2023-05-14T00:25:33;100379.63;;;16.77;52.26
27805;BME280;15183;51.350;11.102;2023-05-14T00:27:59;100376.06;;;16.71;52.62
27805;BME280;15183;51.350;11.102;2023-05-14T00:30:26;100376.91;;;16.72;52.65
27805;BME280;15183;51.350;11.102;2023-05-14T00:32:52;100377.41;;;16.69;52.53
27805;BME280;15183;51.350;11.102;2023-05-14T00:35:19;100376.53;;;16.63;52.68
27805;BME280;15183;51.350;11.102;2023-05-14T00:37:46;100354.97;;;16.47;52.56
27805;BME280;15183;51.350;11.102;2023-05-14T00:40:13;100354.16;;;16.47;52.46
27805;BME280;15183;51.350;11.102;2023-05-14T00:42:39;100362.75;;;16.49;52.88
27805;BME280;15183;51.350;11.102;2023-05-14T00:45:06;100365.75;;;16.53;52.94
27805;BME280;15183;51.350;11.102;2023-05-14T00:47:33;100364.88;;;16.47;52.65
27805;BME280;15183;51.350;11.102;2023-05-14T00:50:05;100374.00;;;16.51;53.26
27805;BME280;15183;51.350;11.102;2023-05-14T00:52:31;100357.34;;;16.44;53.32
27805;BME280;15183;51.350;11.102;2023-05-14T00:54:58;100366.47;;;16.48;52.99
27805;BME280;15183;51.350;11.102;2023-05-14T00:57:25;100368.19;;;16.59;52.82
27805;BME280;15183;51.350;11.102;2023-05-14T00:59:52;100377.84;;;16.60;52.63
27805;BME280;15183;51.350;11.102;2023-05-14T01:02:19;100368.69;;;16.56;53.18
27805;BME280;15183;51.350;11.102;2023-05-14T01:04:45;100366.25;;;16.49;53.03
27805;BME280;15183;51.350;11.102;2023-05-14T01:10:12;100362.03;;;16.31;53.38
27805;BME280;15183;51.350;11.102;2023-05-14T01:13:15;100368.56;;;16.41;53.49
27805;BME280;15183;51.350;11.102;2023-05-14T01:15:47;100366.16;;;16.44;53.62
27805;BME280;15183;51.350;11.102;2023-05-14T01:18:17;100351.50;;;16.47;53.50
27805;BME280;15183;51.350;11.102;2023-05-14T01:20:44;100370.13;;;16.64;53.44
27805;BME280;15183;51.350;11.102;2023-05-14T01:23:11;100368.41;;;16.80;52.79
27805;BME280;15183;51.350;11.102;2023-05-14T01:25:37;100371.44;;;16.89;53.00
27805;BME280;15183;51.350;11.102;2023-05-14T01:28:18;100359.69;;;16.95;52.61
27805;BME280;15183;51.350;11.102;2023-05-14T01:31:05;100354.81;;;16.87;52.92
27805;BME280;15183;51.350;11.102;2023-05-14T01:33:33;100354.47;;;16.78;53.04
27805;BME280;15183;51.350;11.102;2023-05-14T01:36:00;100358.16;;;16.72;53.36
27805;BME280;15183;51.350;11.102;2023-05-14T01:38:27;100368.09;;;16.76;53.16
27805;BME280;15183;51.350;11.102;2023-05-14T01:40:56;100347.34;;;16.61;53.07
27805;BME280;15183;51.350;11.102;2023-05-14T01:43:24;100363.84;;;16.81;53.43
27805;BME280;15183;51.350;11.102;2023-05-14T01:45:51;100372.69;;;16.81;53.49
27805;BME280;15183;51.350;11.102;2023-05-14T01:48:17;100373.25;;;16.83;53.77
27805;BME280;15183;51.350;11.102;2023-05-14T01:50:43;100366.28;;;16.82;53.19
27805;BME280;15183;51.350;11.102;2023-05-14T01:53:10;100348.06;;;16.79;53.40
27805;BME280;15183;51.350;11.102;2023-05-14T01:55:36;100368.28;;;16.97;53.38
27805;BME280;15183;51.350;11.102;2023-05-14T01:58:03;100355.97;;;16.96;52.96
27805;BME280;15183;51.350;11.102;2023-05-14T02:00:30;100364.09;;;17.06;53.02
27805;BME280;15183;51.350;11.102;2023-05-14T02:02:56;100350.97;;;17.05;53.28
27805;BME280;15183;51.350;11.102;2023-05-14T02:05:23;100358.81;;;17.17;53.13
27805;BME280;15183;51.350;11.102;2023-05-14T02:07:49;100357.00;;;17.23;53.02
27805;BME280;15183;51.350;11.102;2023-05-14T02:10:16;100351.63;;;17.23;52.47
27805;BME280;15183;51.350;11.102;2023-05-14T02:12:43;100355.41;;;17.27;52.80
27805;BME280;15183;51.350;11.102;2023-05-14T02:15:09;100354.38;;;17.33;52.95
27805;BME280;15183;51.350;11.102;2023-05-14T02:17:36;100360.25;;;17.30;52.57
27805;BME280;15183;51.350;11.102;2023-05-14T02:20:03;100344.63;;;17.16;53.22
27805;BME280;15183;51.350;11.102;2023-05-14T02:22:29;100337.84;;;17.03;52.88
27805;BME280;15183;51.350;11.102;2023-05-14T02:24:55;100325.88;;;16.84;53.55
27805;BME280;15183;51.350;11.102;2023-05-14T02:27:22;100323.41;;;16.77;53.84
27805;BME280;15183;51.350;11.102;2023-05-14T02:29:48;100331.69;;;16.75;53.66
27805;BME280;15183;51.350;11.102;2023-05-14T02:32:15;100327.13;;;16.71;54.22
27805;BME280;15183;51.350;11.102;2023-05-14T02:34:41;100326.06;;;16.72;53.76
27805;BME280;15183;51.350;11.102;2023-05-14T02:37:07;100328.25;;;16.80;53.76
27805;BME280;15183;51.350;11.102;2023-05-14T02:39:34;100334.00;;;16.94;53.87
27805;BME280;15183;51.350;11.102;2023-05-14T02:42:00;100330.56;;;16.99;53.28
27805;BME280;15183;51.350;11.102;2023-05-14T02:44:27;100336.53;;;17.06;53.78
27805;BME280;15183;51.350;11.102;2023-05-14T02:46:53;100319.09;;;17.03;52.92
27805;BME280;15183;51.350;11.102;2023-05-14T02:49:19;100333.66;;;17.18;53.12
27805;BME280;15183;51.350;11.102;2023-05-14T02:51:46;100320.78;;;17.15;52.87
27805;BME280;15183;51.350;11.102;2023-05-14T02:54:12;100333.09;;;17.16;53.54
27805;BME280;15183;51.350;11.102;2023-05-14T02:56:41;100312.94;;;17.03;53.58
27805;BME280;15183;51.350;11.102;2023-05-14T02:59:07;100337.66;;;17.15;53.34
27805;BME280;15183;51.350;11.102;2023-05-14T03:01:34;100331.41;;;17.04;53.29
27805;BME280;15183;51.350;11.102;2023-05-14T03:04:00;100330.31;;;17.00;53.99
27805;BME280;15183;51.350;11.102;2023-05-14T03:06:27;100326.50;;;16.96;53.60
27805;BME280;15183;51.350;11.102;2023-05-14T03:08:53;100325.88;;;16.84;53.63
27805;BME280;15183;51.350;11.102;2023-05-14T03:11:19;100333.97;;;16.89;53.97
27805;BME280;15183;51.350;11.102;2023-05-14T03:13:46;100326.72;;;16.89;53.96
27805;BME280;15183;51.350;11.102;2023-05-14T03:16:12;100325.41;;;16.92;53.81
27805;BME280;15183;51.350;11.102;2023-05-14T03:18:38;100320.06;;;16.92;53.69
27805;BME280;15183;51.350;11.102;2023-05-14T03:21:05;100324.03;;;16.89;53.99
27805;BME280;15183;51.350;11.102;2023-05-14T03:23:34;100323.53;;;16.92;53.89
27805;BME280;15183;51.350;11.102;2023-05-14T03:26:00;100326.75;;;16.95;53.83
27805;BME280;15183;51.350;11.102;2023-05-14T03:28:27;100323.03;;;16.96;54.10
27805;BME280;15183;51.350;11.102;2023-05-14T03:30:54;100319.78;;;16.93;53.96
27805;BME280;15183;51.350;11.102;2023-05-14T03:33:20;100307.19;;;16.89;53.62
27805;BME280;15183;51.350;11.102;2023-05-14T03:35:47;100315.00;;;16.96;53.73
27805;BME280;15183;51.350;11.102;2023-05-14T03:38:14;100330.06;;;17.02;54.11
27805;BME280;15183;51.350;11.102;2023-05-14T03:40:40;100319.78;;;16.93;53.99
27805;BME280;15183;51.350;11.102;2023-05-14T03:43:07;100321.09;;;16.86;53.82
27805;BME280;15183;51.350;11.102;2023-05-14T03:45:34;100319.97;;;16.82;54.23
27805;BME280;15183;51.350;11.102;2023-05-14T03:48:01;100324.25;;;16.83;54.46
27805;BME280;15183;51.350;11.102;2023-05-14T03:50:27;100316.41;;;16.71;54.21
27805;BME280;15183;51.350;11.102;2023-05-14T03:52:53;100311.31;;;16.69;54.33
27805;BME280;15183;51.350;11.102;2023-05-14T03:55:20;100317.78;;;16.78;54.41
27805;BME280;15183;51.350;11.102;2023-05-14T03:57:47;100323.97;;;16.79;54.46
27805;BME280;15183;51.350;11.102;2023-05-14T04:00:14;100316.16;;;16.72;54.15
27805;BME280;15183;51.350;11.102;2023-05-14T04:02:41;100316.69;;;16.74;54.62
27805;BME280;15183;51.350;11.102;2023-05-14T04:05:07;100308.97;;;16.78;54.60
27805;BME280;15183;51.350;11.102;2023-05-14T04:07:34;100307.59;;;16.75;54.21
27805;BME280;15183;51.350;11.102;2023-05-14T04:10:02;100316.69;;;16.74;54.48
27805;BME280;15183;51.350;11.102;2023-05-14T04:12:28;100311.91;;;16.76;54.76
27805;BME280;15183;51.350;11.102;2023-05-14T04:14:57;100308.44;;;16.76;54.16
27805;BME280;15183;51.350;11.102;2023-05-14T04:17:23;100311.13;;;16.81;54.47
27805;BME280;15183;51.350;11.102;2023-05-14T04:19:49;100306.06;;;16.85;54.76
27805;BME280;15183;51.350;11.102;2023-05-14T04:22:16;100310.41;;;16.91;54.58
27805;BME280;15183;51.350;11.102;2023-05-14T04:24:42;100317.66;;;16.96;54.54
27805;BME280;15183;51.350;11.102;2023-05-14T04:27:08;100317.22;;;17.04;54.72
27805;BME280;15183;51.350;11.102;2023-05-14T04:30:09;100312.88;;;16.98;54.50
27805;BME280;15183;51.350;11.102;2023-05-14T04:32:35;100317.66;;;16.96;54.82
27805;BME280;15183;51.350;11.102;2023-05-14T04:35:03;100314.19;;;16.95;54.58
27805;BME280;15183;51.350;11.102;2023-05-14T04:37:30;100308.50;;;16.86;54.61
27805;BME280;15183;51.350;11.102;2023-05-14T04:39:57;100309.09;;;16.93;54.76
27805;BME280;15183;51.350;11.102;2023-05-14T04:42:23;100318.41;;;16.86;55.00
27805;BME280;15183;51.350;11.102;2023-05-14T04:44:50;100303.63;;;16.78;54.65
27805;BME280;15183;51.350;11.102;2023-05-14T04:47:17;100311.38;;;16.79;55.12
27805;BME280;15183;51.350;11.102;2023-05-14T04:49:43;100325.63;;;16.85;55.07
27805;BME280;15183;51.350;11.102;2023-05-14T04:52:10;100314.41;;;16.88;55.17
27805;BME280;15183;51.350;11.102;2023-05-14T04:54:37;100327.09;;;16.98;54.95
27805;BME280;15183;51.350;11.102;2023-05-14T04:57:03;100315.88;;;17.01;54.71
27805;BME280;15183;51.350;11.102;2023-05-14T04:59:30;100310.81;;;17.05;54.72
27805;BME280;15183;51.350;11.102;2023-05-14T05:01:57;100322.66;;;17.14;54.97
27805;BME280;15183;51.350;11.102;2023-05-14T05:04:23;100318.09;;;17.15;54.51
27805;BME280;15183;51.350;11.102;2023-05-14T05:06:50;100306.50;;;17.04;54.75
27805;BME280;15183;51.350;11.102;2023-05-14T05:09:17;100310.31;;;17.08;54.99
27805;BME280;15183;51.350;11.102;2023-05-14T05:11:44;100324.81;;;17.17;54.79
27805;BME280;15183;51.350;11.102;2023-05-14T05:14:10;100322.91;;;17.13;55.10
27805;BME280;15183;51.350;11.102;2023-05-14T05:16:36;100315.16;;;17.11;54.65
27805;BME280;15183;51.350;11.102;2023-05-14T05:19:03;100329.09;;;17.13;55.58
27805;BME280;15183;51.350;11.102;2023-05-14T05:21:29;100316.28;;;17.20;55.54
27805;BME280;15183;51.350;11.102;2023-05-14T05:23:56;100315.53;;;17.30;54.71
27805;BME280;15183;51.350;11.102;2023-05-14T05:26:23;100319.06;;;17.41;55.04
27805;BME280;15183;51.350;11.102;2023-05-14T05:28:51;100296.88;;;17.46;54.51
27805;BME280;15183;51.350;11.102;2023-05-14T05:31:18;100305.28;;;17.70;54.40
27805;BME280;15183;51.350;11.102;2023-05-14T05:33:44;100304.53;;;17.85;54.18
27805;BME280;15183;51.350;11.102;2023-05-14T05:36:11;100306.50;;;18.05;53.89
27805;BME280;15183;51.350;11.102;2023-05-14T05:38:37;100318.63;;;18.29;53.56
27805;BME280;15183;51.350;11.102;2023-05-14T05:41:04;100306.03;;;18.45;53.25
27805;BME280;15183;51.350;11.102;2023-05-14T05:43:30;100310.91;;;18.63;53.54
27805;BME280;15183;51.350;11.102;2023-05-14T05:45:59;100318.16;;;18.78;53.54
27805;BME280;15183;51.350;11.102;2023-05-14T05:48:26;100311.16;;;18.88;52.79
27805;BME280;15183;51.350;11.102;2023-05-14T05:50:52;100311.19;;;19.03;53.24
27805;BME280;15183;51.350;11.102;2023-05-14T05:53:19;100320.31;;;19.18;53.15
27805;BME280;15183;51.350;11.102;2023-05-14T05:55:45;100322.97;;;19.28;53.27
27805;BME280;15183;51.350;11.102;2023-05-14T05:58:12;100308.16;;;19.31;53.14
27805;BME280;15183;51.350;11.102;2023-05-14T06:00:41;100319.44;;;19.43;53.32
27805;BME280;15183;51.350;11.102;2023-05-14T06:03:07;100313.50;;;19.51;52.70
27805;BME280;15183;51.350;11.102;2023-05-14T06:05:34;100302.69;;;19.62;53.29
27805;BME280;15183;51.350;11.102;2023-05-14T06:08:01;100298.91;;;19.73;52.49
27805;BME280;15183;51.350;11.102;2023-05-14T06:10:27;100306.31;;;20.02;52.55
27805;BME280;15183;51.350;11.102;2023-05-14T06:12:54;100308.38;;;20.21;52.29
27805;BME280;15183;51.350;11.102;2023-05-14T06:15:22;100307.19;;;20.37;52.08
27805;BME280;15183;51.350;11.102;2023-05-14T06:17:48;100311.97;;;20.51;52.46
27805;BME280;15183;51.350;11.102;2023-05-14T06:20:14;100301.34;;;20.65;52.13
27805;BME280;15183;51.350;11.102;2023-05-14T06:22:41;100302.84;;;20.81;51.74
27805;BME280;15183;51.350;11.102;2023-05-14T06:25:08;100301.84;;;21.02;51.93
27805;BME280;15183;51.350;11.102;2023-05-14T06:27:34;100301.19;;;21.15;51.60
27805;BME280;15183;51.350;11.102;2023-05-14T06:30:00;100309.63;;;21.33;51.55
27805;BME280;15183;51.350;11.102;2023-05-14T06:32:27;100311.13;;;21.44;51.14
27805;BME280;15183;51.350;11.102;2023-05-14T06:34:53;100300.78;;;21.51;51.25
27805;BME280;15183;51.350;11.102;2023-05-14T06:37:20;100291.50;;;21.63;50.71
27805;BME280;15183;51.350;11.102;2023-05-14T06:39:46;100304.16;;;21.87;50.45
27805;BME280;15183;51.350;11.102;2023-05-14T06:42:16;100303.09;;;22.07;50.33
27805;BME280;15183;51.350;11.102;2023-05-14T06:44:43;100287.56;;;22.18;49.46
27805;BME280;15183;51.350;11.102;2023-05-14T06:47:10;100276.09;;;22.26;49.49
27805;BME280;15183;51.350;11.102;2023-05-14T06:49:36;100287.41;;;22.47;48.86
27805;BME280;15183;51.350;11.102;2023-05-14T06:52:03;100276.44;;;22.38;49.16
27805;BME280;15183;51.350;11.102;2023-05-14T06:54:30;100276.81;;;22.51;48.76
27805;BME280;15183;51.350;11.102;2023-05-14T06:56:56;100286.88;;;22.78;48.83
27805;BME280;15183;51.350;11.102;2023-05-14T06:59:23;100276.00;;;22.97;48.50
27805;BME280;15183;51.350;11.102;2023-05-14T07:01:49;100271.94;;;23.14;48.38
27805;BME280;15183;51.350;11.102;2023-05-14T07:04:16;100269.78;;;23.30;48.13
27805;BME280;15183;51.350;11.102;2023-05-14T07:06:42;100273.97;;;23.50;47.94
27805;BME280;15183;51.350;11.102;2023-05-14T07:09:09;100272.66;;;23.62;47.68
27805;BME280;15183;51.350;11.102;2023-05-14T07:11:35;100284.72;;;23.92;47.73
27805;BME280;15183;51.350;11.102;2023-05-14T07:14:02;100282.38;;;24.13;47.62
27805;BME280;15183;51.350;11.102;2023-05-14T07:16:28;100274.19;;;24.27;47.46
27805;BME280;15183;51.350;11.102;2023-05-14T07:18:55;100257.03;;;24.32;47.01
27805;BME280;15183;51.350;11.102;2023-05-14T07:21:21;100264.53;;;24.35;46.50
27805;BME280;15183;51.350;11.102;2023-05-14T07:23:48;100254.31;;;24.32;45.71
27805;BME280;15183;51.350;11.102;2023-05-14T07:26:14;100265.53;;;24.39;45.78
27805;BME280;15183;51.350;11.102;2023-05-14T07:28:40;100262.78;;;24.62;46.37
27805;BME280;15183;51.350;11.102;2023-05-14T07:31:07;100250.66;;;24.82;46.07
27805;BME280;15183;51.350;11.102;2023-05-14T07:33:37;100257.94;;;25.05;45.46
27805;BME280;15183;51.350;11.102;2023-05-14T07:36:04;100242.78;;;25.12;45.69
27805;BME280;15183;51.350;11.102;2023-05-14T07:38:31;100241.25;;;25.29;45.62
27805;BME280;15183;51.350;11.102;2023-05-14T07:40:57;100251.84;;;25.48;46.24
27805;BME280;15183;51.350;11.102;2023-05-14T07:43:24;100241.69;;;25.80;45.62
27805;BME280;15183;51.350;11.102;2023-05-14T07:45:51;100226.03;;;26.04;45.65
27805;BME280;15183;51.350;11.102;2023-05-14T07:48:17;100224.91;;;26.31;44.61
27805;BME280;15183;51.350;11.102;2023-05-14T07:50:43;100232.00;;;26.62;44.38
27805;BME280;15183;51.350;11.102;2023-05-14T07:53:10;100222.03;;;26.84;44.04
27805;BME280;15183;51.350;11.102;2023-05-14T07:55:36;100216.34;;;27.07;43.47
27805;BME280;15183;51.350;11.102;2023-05-14T07:58:03;100217.03;;;27.25;42.98
27805;BME280;15183;51.350;11.102;2023-05-14T08:00:29;100214.53;;;27.41;42.96
27805;BME280;15183;51.350;11.102;2023-05-14T08:02:56;100213.97;;;27.56;41.01
27805;BME280;15183;51.350;11.102;2023-05-14T08:05:22;100212.06;;;27.57;40.40
27805;BME280;15183;51.350;11.102;2023-05-14T08:07:49;100204.88;;;27.52;40.15
27805;BME280;15183;51.350;11.102;2023-05-14T08:10:16;100215.94;;;27.47;39.13
27805;BME280;15183;51.350;11.102;2023-05-14T08:12:42;100221.97;;;27.32;38.99
27805;BME280;15183;51.350;11.102;2023-05-14T08:15:09;100211.63;;;27.16;38.47
27805;BME280;15183;51.350;11.102;2023-05-14T08:17:35;100212.03;;;27.06;39.55
27805;BME280;15183;51.350;11.102;2023-05-14T08:20:02;100211.41;;;27.00;39.32
27805;BME280;15183;51.350;11.102;2023-05-14T08:22:30;100217.50;;;26.97;39.16
27805;BME280;15183;51.350;11.102;2023-05-14T08:24:57;100208.25;;;26.89;39.67
27805;BME280;15183;51.350;11.102;2023-05-14T08:27:24;100208.09;;;26.94;39.12
27805;BME280;15183;51.350;11.102;2023-05-14T08:29:52;100213.66;;;26.98;39.37
27805;BME280;15183;51.350;11.102;2023-05-14T08:32:18;100212.03;;;27.06;38.75
27805;BME280;15183;51.350;11.102;2023-05-14T08:34:45;100206.84;;;27.13;38.52
27805;BME280;15183;51.350;11.102;2023-05-14T08:37:11;100195.47;;;27.20;38.56
27805;BME280;15183;51.350;11.102;2023-05-14T08:39:38;100200.19;;;27.32;38.68
27805;BME280;15183;51.350;11.102;2023-05-14T08:42:06;100192.56;;;27.46;38.61
27805;BME280;15183;51.350;11.102;2023-05-14T08:44:46;100186.28;;;27.54;37.99
27805;BME280;15183;51.350;11.102;2023-05-14T08:47:39;100190.28;;;27.57;38.66
27805;BME280;15183;51.350;11.102;2023-05-14T08:50:06;100179.31;;;27.66;38.14
27805;BME280;15183;51.350;11.102;2023-05-14T08:52:34;100183.53;;;27.76;37.17
27805;BME280;15183;51.350;11.102;2023-05-14T08:55:04;100193.44;;;27.80;37.23
27805;BME280;15183;51.350;11.102;2023-05-14T08:57:32;100169.69;;;27.68;37.23
27805;BME280;15183;51.350;11.102;2023-05-14T08:59:59;100174.38;;;27.80;37.08
27805;BME280;15183;51.350;11.102;2023-05-14T09:02:30;100176.91;;;27.85;37.02
27805;BME280;15183;51.350;11.102;2023-05-14T09:04:58;100167.34;;;27.79;36.16
27805;BME280;15183;51.350;11.102;2023-05-14T09:07:25;100161.75;;;27.76;35.93
27805;BME280;15183;51.350;11.102;2023-05-14T09:09:52;100152.22;;;27.69;36.03
27805;BME280;15183;51.350;11.102;2023-05-14T09:12:19;100161.97;;;27.70;35.87
27805;BME280;15183;51.350;11.102;2023-05-14T09:14:47;100154.22;;;27.60;35.25
27805;BME280;15183;51.350;11.102;2023-05-14T09:17:15;100144.56;;;27.41;34.58
27805;BME280;15183;51.350;11.102;2023-05-14T09:19:42;100158.06;;;27.38;34.43
27805;BME280;15183;51.350;11.102;2023-05-14T09:22:12;100155.59;;;27.24;34.62
27805;BME280;15183;51.350;11.102;2023-05-14T09:24:39;100144.97;;;27.10;34.27
27805;BME280;15183;51.350;11.102;2023-05-14T09:27:06;100140.03;;;27.03;34.99
27805;BME280;15183;51.350;11.102;2023-05-14T09:29:33;100140.31;;;27.10;34.95
27805;BME280;15183;51.350;11.102;2023-05-14T09:32:01;100148.50;;;27.32;35.71
27805;BME280;15183;51.350;11.102;2023-05-14T09:34:33;100135.81;;;27.36;34.94
27805;BME280;15183;51.350;11.102;2023-05-14T09:37:06;100144.72;;;27.45;35.56
27805;BME280;15183;51.350;11.102;2023-05-14T09:39:34;100139.59;;;27.43;34.94
27805;BME280;15183;51.350;11.102;2023-05-14T09:42:02;100139.00;;;27.38;33.78
27805;BME280;15183;51.350;11.102;2023-05-14T09:44:28;100110.56;;;27.05;33.62
27805;BME280;15183;51.350;11.102;2023-05-14T09:46:55;100123.84;;;27.07;34.12
27805;BME280;15183;51.350;11.102;2023-05-14T09:49:22;100106.66;;;26.94;33.65
27805;BME280;15183;51.350;11.102;2023-05-14T09:51:48;100134.75;;;27.07;33.97
27805;BME280;15183;51.350;11.102;2023-05-14T09:54:15;100135.66;;;27.11;33.78
27805;BME280;15183;51.350;11.102;2023-05-14T09:56:43;100125.31;;;27.04;33.83
27805;BME280;15183;51.350;11.102;2023-05-14T09:59:09;100122.19;;;26.93;32.94
27805;BME280;15183;51.350;11.102;2023-05-14T10:01:37;100123.97;;;26.89;33.50
27805;BME280;15183;51.350;11.102;2023-05-14T10:04:06;100120.13;;;26.90;34.17
27805;BME280;15183;51.350;11.102;2023-05-14T10:06:36;100106.22;;;26.83;33.86
27805;BME280;15183;51.350;11.102;2023-05-14T10:09:04;100115.47;;;26.91;34.06
27805;BME280;15183;51.350;11.102;2023-05-14T10:11:37;100107.13;;;26.96;33.27
27805;BME280;15183;51.350;11.102;2023-05-14T10:14:20;100100.25;;;26.98;33.96
27805;BME280;15183;51.350;11.102;2023-05-14T10:16:50;100108.06;;;27.21;33.76
27805;BME280;15183;51.350;11.102;2023-05-14T10:19:21;100105.63;;;27.28;33.96
27805;BME280;15183;51.350;11.102;2023-05-14T10:21:55;100105.69;;;27.41;32.96
27805;BME280;15183;51.350;11.102;2023-05-14T10:24:23;100094.72;;;27.50;33.59
27805;BME280;15183;51.350;11.102;2023-05-14T10:26:49;100082.09;;;27.45;33.18
27805;BME280;15183;51.350;11.102;2023-05-14T10:29:16;100107.59;;;27.62;32.62
27805;BME280;15183;51.350;11.102;2023-05-14T10:31:53;100093.31;;;27.43;32.61
27805;BME280;15183;51.350;11.102;2023-05-14T10:34:40;100087.09;;;27.43;32.92
27805;BME280;15183;51.350;11.102;2023-05-14T10:37:22;100074.81;;;27.37;33.86
27805;BME280;15183;51.350;11.102;2023-05-14T10:39:58;100076.88;;;27.40;32.96
27805;BME280;15183;51.350;11.102;2023-05-14T10:42:32;100084.03;;;27.44;33.11
27805;BME280;15183;51.350;11.102;2023-05-14T10:45:06;100085.47;;;27.51;33.19
27805;BME280;15183;51.350;11.102;2023-05-14T10:47:38;100083.97;;;27.53;32.44
27805;BME280;15183;51.350;11.102;2023-05-14T10:50:08;100085.09;;;27.52;32.10
27805;BME280;15183;51.350;11.102;2023-05-14T10:52:35;100079.81;;;27.56;32.27
27805;BME280;15183;51.350;11.102;2023-05-14T10:55:04;100080.16;;;27.45;31.49
27805;BME280;15183;51.350;11.102;2023-05-14T10:57:37;100071.66;;;27.35;31.68
27805;BME280;15183;51.350;11.102;2023-05-14T11:00:09;100067.78;;;27.36;31.75
27805;BME280;15183;51.350;11.102;2023-05-14T11:02:42;100070.81;;;27.55;32.28
27805;BME280;15183;51.350;11.102;2023-05-14T11:05:14;100069.28;;;27.67;31.29
27805;BME280;15183;51.350;11.102;2023-05-14T11:07:48;100046.28;;;27.77;31.99
27805;BME280;15183;51.350;11.102;2023-05-14T11:10:19;100049.03;;;28.01;31.06
27805;BME280;15183;51.350;11.102;2023-05-14T11:12:49;100057.38;;;28.30;30.87
27805;BME280;15183;51.350;11.102;2023-05-14T11:15:21;100053.84;;;28.42;30.84
27805;BME280;15183;51.350;11.102;2023-05-14T11:17:49;100064.41;;;28.56;30.79
27805;BME280;15183;51.350;11.102;2023-05-14T11:20:16;100066.22;;;28.64;30.42
27805;BME280;15183;51.350;11.102;2023-05-14T11:22:44;100048.94;;;28.60;30.31
27805;BME280;15183;51.350;11.102;2023-05-14T11:25:12;100058.94;;;28.56;30.23
27805;BME280;15183;51.350;11.102;2023-05-14T11:27:42;100051.81;;;28.39;30.22
27805;BME280;15183;51.350;11.102;2023-05-14T11:30:14;100045.66;;;28.17;30.49
27805;BME280;15183;51.350;11.102;2023-05-14T11:32:44;100049.63;;;28.07;30.85
27805;BME280;15183;51.350;11.102;2023-05-14T11:35:11;100045.31;;;28.06;30.26
27805;BME280;15183;51.350;11.102;2023-05-14T11:37:38;100043.50;;;28.10;31.04
27805;BME280;15183;51.350;11.102;2023-05-14T11:40:08;100044.66;;;28.22;30.62
27805;BME280;15183;51.350;11.102;2023-05-14T11:42:36;100039.44;;;28.29;30.38
27805;BME280;15183;51.350;11.102;2023-05-14T11:45:02;100036.91;;;28.36;30.94
27805;BME280;15183;51.350;11.102;2023-05-14T11:47:29;100039.50;;;28.57;31.20
27805;BME280;15183;51.350;11.102;2023-05-14T11:49:56;100013.81;;;28.71;31.01
27805;BME280;15183;51.350;11.102;2023-05-14T11:52:24;100031.34;;;29.11;30.49
27805;BME280;15183;51.350;11.102;2023-05-14T11:54:50;100026.81;;;29.43;30.65
27805;BME280;15183;51.350;11.102;2023-05-14T11:57:20;100020.25;;;29.77;30.62
27805;BME280;15183;51.350;11.102;2023-05-14T11:59:48;100018.59;;;30.04;30.08
27805;BME280;15183;51.350;11.102;2023-05-14T12:02:20;100017.47;;;30.25;29.31
27805;BME280;15183;51.350;11.102;2023-05-14T12:04:51;100022.00;;;30.33;29.77
27805;BME280;15183;51.350;11.102;2023-05-14T12:07:18;100012.72;;;30.22;29.90
27805;BME280;15183;51.350;11.102;2023-05-14T12:09:47;100015.47;;;30.06;29.98
27805;BME280;15183;51.350;11.102;2023-05-14T12:12:21;100003.03;;;29.76;29.55
27805;BME280;15183;51.350;11.102;2023-05-14T12:14:49;100000.47;;;29.51;29.91
27805;BME280;15183;51.350;11.102;2023-05-14T12:17:19;100011.00;;;29.37;29.92
27805;BME280;15183;51.350;11.102;2023-05-14T12:19:51;100013.94;;;29.15;30.12
27805;BME280;15183;51.350;11.102;2023-05-14T12:22:21;99993.69;;;28.88;29.76
27805;BME280;15183;51.350;11.102;2023-05-14T12:24:56;100002.22;;;28.74;29.91
27805;BME280;15183;51.350;11.102;2023-05-14T12:27:27;99983.78;;;28.42;30.10
27805;BME280;15183;51.350;11.102;2023-05-14T12:30:01;99991.97;;;28.30;30.30
27805;BME280;15183;51.350;11.102;2023-05-14T12:32:36;100001.38;;;28.20;30.40
27805;BME280;15183;51.350;11.102;2023-05-14T12:35:03;100002.44;;;28.15;30.77
27805;BME280;15183;51.350;11.102;2023-05-14T12:37:30;99982.41;;;27.99;30.76
27805;BME280;15183;51.350;11.102;2023-05-14T12:39:56;99992.41;;;28.07;30.39
27805;BME280;15183;51.350;11.102;2023-05-14T12:42:22;99992.06;;;28.09;31.20
27805;BME280;15183;51.350;11.102;2023-05-14T12:44:49;99975.81;;;28.00;30.31
27805;BME280;15183;51.350;11.102;2023-05-14T12:47:15;99984.00;;;28.00;30.29